sensor_id;sensor_type;location;lat;lon;timestamp;pressure;altitude;pressure_sealevel;temperature;humidity
57616;BME280;43816;52.054;-9.494;2022-09-25T00:00:07;102198.41;;;14.49;60.88
57616;BME280;43816;52.054;-9.494;2022-09-25T00:00:18;102195.69;;;14.49;60.98
57616;BME280;43816;52.054;-9.494;2022-09-25T00:00:28;102203.81;;;14.49;61.01
57616;BME280;43816;52.054;-9.494;2022-09-25T00:00:39;102195.69;;;14.49;60.93
57616;BME280;43816;52.054;-9.494;2022-09-25T00:00:52;102207.41;;;14.49;61.08
57616;BME280;43816;52.054;-9.494;2022-09-25T00:01:02;102202.09;;;14.48;61.06
57616;BME280;43816;52.054;-9.494;2022-09-25T00:01:14;102197.66;;;14.47;60.88
57616;BME280;43816;52.054;-9.494;2022-09-25T00:01:25;102198.66;;;14.46;60.99
57616;BME280;43816;52.054;-9.494;2022-09-25T00:01:35;102197.66;;;14.47;60.91
57616;BME280;43816;52.054;-9.494;2022-09-25T00:01:46;102194.94;;;14.47;61.02
57616;BME280;43816;52.054;-9.494;2022-09-25T00:01:56;102196.78;;;14.46;61.20
57616;BME280;43816;52.054;-9.494;2022-09-25T00:02:06;102205.78;;;14.47;61.19
57616;BME280;43816;52.054;-9.494;2022-09-25T00:02:16;102200.34;;;14.47;60.96
57616;BME280;43816;52.054;-9.494;2022-09-25T00:02:27;102203.97;;;14.47;60.97
57616;BME280;43816;52.054;-9.494;2022-09-25T00:02:37;102200.34;;;14.47;60.84
57616;BME280;43816;52.054;-9.494;2022-09-25T00:02:47;102193.97;;;14.48;61.02
57616;BME280;43816;52.054;-9.494;2022-09-25T00:02:57;102195.84;;;14.47;60.96
57616;BME280;43816;52.054;-9.494;2022-09-25T00:03:09;102196.69;;;14.48;60.98
57616;BME280;43816;52.054;-9.494;2022-09-25T00:03:20;102199.41;;;14.48;61.04
57616;BME280;43816;52.054;-9.494;2022-09-25T00:03:31;102201.25;;;14.47;60.92
57616;BME280;43816;52.054;-9.494;2022-09-25T00:03:42;102195.94;;;14.46;60.83
57616;BME280;43816;52.054;-9.494;2022-09-25T00:03:52;102201.25;;;14.47;60.87
57616;BME280;43816;52.054;-9.494;2022-09-25T00:04:03;102197.66;;;14.47;60.82
57616;BME280;43816;52.054;-9.494;2022-09-25T00:04:14;102198.53;;;14.47;60.91
57616;BME280;43816;52.054;-9.494;2022-09-25T00:04:24;102203.06;;;14.47;61.08
57616;BME280;43816;52.054;-9.494;2022-09-25T00:04:34;102202.22;;;14.46;60.93
57616;BME280;43816;52.054;-9.494;2022-09-25T00:04:44;102202.22;;;14.46;60.94
57616;BME280;43816;52.054;-9.494;2022-09-25T00:04:55;102199.50;;;14.46;61.13
57616;BME280;43816;52.054;-9.494;2022-09-25T00:05:05;102202.22;;;14.46;60.96
57616;BME280;43816;52.054;-9.494;2022-09-25T00:05:16;102199.59;;;14.44;61.03
57616;BME280;43816;52.054;-9.494;2022-09-25T00:05:26;102201.34;;;14.46;61.15
57616;BME280;43816;52.054;-9.494;2022-09-25T00:05:38;102198.66;;;14.46;61.18
57616;BME280;43816;52.054;-9.494;2022-09-25T00:05:48;102199.59;;;14.44;60.77
57616;BME280;43816;52.054;-9.494;2022-09-25T00:06:22;102202.22;;;14.46;61.34
57616;BME280;43816;52.054;-9.494;2022-09-25T00:06:31;102195.03;;;14.45;61.13
57616;BME280;43816;52.054;-9.494;2022-09-25T00:06:41;102194.19;;;14.44;60.79
57616;BME280;43816;52.054;-9.494;2022-09-25T00:06:51;102205.03;;;14.44;61.12
57616;BME280;43816;52.054;-9.494;2022-09-25T00:07:02;102200.56;;;14.43;60.89
57616;BME280;43816;52.054;-9.494;2022-09-25T00:07:12;102196.16;;;14.42;60.85
57616;BME280;43816;52.054;-9.494;2022-09-25T00:07:23;102205.13;;;14.43;61.06
57616;BME280;43816;52.054;-9.494;2022-09-25T00:07:33;102202.53;;;14.41;61.01
57616;BME280;43816;52.054;-9.494;2022-09-25T00:07:44;102206.09;;;14.42;61.17
57616;BME280;43816;52.054;-9.494;2022-09-25T00:07:54;102202.53;;;14.41;61.05
57616;BME280;43816;52.054;-9.494;2022-09-25T00:08:04;102200.69;;;14.42;61.06
57616;BME280;43816;52.054;-9.494;2022-09-25T00:08:16;102197.97;;;14.42;61.00
57616;BME280;43816;52.054;-9.494;2022-09-25T00:08:26;102203.28;;;14.43;60.94
57616;BME280;43816;52.054;-9.494;2022-09-25T00:08:37;102201.56;;;14.42;61.22
57616;BME280;43816;52.054;-9.494;2022-09-25T00:08:48;102198.84;;;14.42;61.14
57616;BME280;43816;52.054;-9.494;2022-09-25T00:08:59;102203.38;;;14.42;61.00
57616;BME280;43816;52.054;-9.494;2022-09-25T00:09:09;102200.69;;;14.42;60.81
57616;BME280;43816;52.054;-9.494;2022-09-25T00:09:19;102198.06;;;14.40;60.80
57616;BME280;43816;52.054;-9.494;2022-09-25T00:09:30;102198.97;;;14.41;61.07
57616;BME280;43816;52.054;-9.494;2022-09-25T00:09:40;102199.81;;;14.41;61.04
57616;BME280;43816;52.054;-9.494;2022-09-25T00:09:50;102198.06;;;14.40;61.06
57616;BME280;43816;52.054;-9.494;2022-09-25T00:10:01;102203.50;;;14.40;60.72
57616;BME280;43816;52.054;-9.494;2022-09-25T00:10:11;102197.13;;;14.41;60.94
57616;BME280;43816;52.054;-9.494;2022-09-25T00:10:22;102198.97;;;14.41;61.13
57616;BME280;43816;52.054;-9.494;2022-09-25T00:10:33;102195.38;;;14.40;61.15
57616;BME280;43816;52.054;-9.494;2022-09-25T00:10:49;102202.53;;;14.41;61.08
57616;BME280;43816;52.054;-9.494;2022-09-25T00:11:04;102200.78;;;14.40;60.78
57616;BME280;43816;52.054;-9.494;2022-09-25T00:11:22;102200.78;;;14.40;60.80
57616;BME280;43816;52.054;-9.494;2022-09-25T00:11:33;102199.94;;;14.40;60.84
57616;BME280;43816;52.054;-9.494;2022-09-25T00:11:44;102204.47;;;14.39;61.37
57616;BME280;43816;52.054;-9.494;2022-09-25T00:11:54;102195.50;;;14.39;61.07
57616;BME280;43816;52.054;-9.494;2022-09-25T00:12:04;102201.78;;;14.39;60.87
57616;BME280;43816;52.054;-9.494;2022-09-25T00:12:15;102201.03;;;14.37;61.00
57616;BME280;43816;52.054;-9.494;2022-09-25T00:12:25;102199.16;;;14.38;61.10
57616;BME280;43816;52.054;-9.494;2022-09-25T00:12:35;102200.03;;;14.38;60.88
57616;BME280;43816;52.054;-9.494;2022-09-25T00:12:45;102201.78;;;14.39;61.19
57616;BME280;43816;52.054;-9.494;2022-09-25T00:12:56;102200.91;;;14.39;61.01
57616;BME280;43816;52.054;-9.494;2022-09-25T00:13:06;102196.34;;;14.39;60.92
57616;BME280;43816;52.054;-9.494;2022-09-25T00:13:18;102201.78;;;14.39;61.16
57616;BME280;43816;52.054;-9.494;2022-09-25T00:13:29;102203.63;;;14.39;60.93
57616;BME280;43816;52.054;-9.494;2022-09-25T00:13:40;102199.16;;;14.38;60.99
57616;BME280;43816;52.054;-9.494;2022-09-25T00:13:51;102198.31;;;14.37;60.80
57616;BME280;43816;52.054;-9.494;2022-09-25T00:14:01;102197.44;;;14.37;60.95
57616;BME280;43816;52.054;-9.494;2022-09-25T00:14:11;102203.72;;;14.37;60.93
57616;BME280;43816;52.054;-9.494;2022-09-25T00:14:22;102199.16;;;14.38;60.69
57616;BME280;43816;52.054;-9.494;2022-09-25T00:14:32;102202.72;;;14.38;60.96
57616;BME280;43816;52.054;-9.494;2022-09-25T00:14:42;102194.72;;;14.37;61.13
57616;BME280;43816;52.054;-9.494;2022-09-25T00:14:53;102203.72;;;14.37;61.04
57616;BME280;43816;52.054;-9.494;2022-09-25T00:15:04;102199.28;;;14.36;60.55
57616;BME280;43816;52.054;-9.494;2022-09-25T00:15:14;102198.31;;;14.37;60.73
57616;BME280;43816;52.054;-9.494;2022-09-25T00:15:25;102194.72;;;14.37;61.14
57616;BME280;43816;52.054;-9.494;2022-09-25T00:15:36;102200.03;;;14.38;60.95
57616;BME280;43816;52.054;-9.494;2022-09-25T00:15:51;102203.72;;;14.37;61.03
57616;BME280;43816;52.054;-9.494;2022-09-25T00:16:03;102194.72;;;14.37;61.15
57616;BME280;43816;52.054;-9.494;2022-09-25T00:16:19;102198.41;;;14.36;60.74
57616;BME280;43816;52.054;-9.494;2022-09-25T00:16:30;102202.84;;;14.37;61.13
57616;BME280;43816;52.054;-9.494;2022-09-25T00:16:41;102196.56;;;14.36;60.93
57616;BME280;43816;52.054;-9.494;2022-09-25T00:16:51;102192.13;;;14.35;60.95
57616;BME280;43816;52.054;-9.494;2022-09-25T00:17:01;102197.63;;;14.34;61.20
57616;BME280;43816;52.054;-9.494;2022-09-25T00:17:12;102194.94;;;14.34;60.98
57616;BME280;43816;52.054;-9.494;2022-09-25T00:17:22;102194.06;;;14.33;61.08
57616;BME280;43816;52.054;-9.494;2022-09-25T00:17:33;102197.63;;;14.34;61.35
57616;BME280;43816;52.054;-9.494;2022-09-25T00:17:43;102193.13;;;14.34;61.23
57616;BME280;43816;52.054;-9.494;2022-09-25T00:17:53;102197.63;;;14.34;60.98
57616;BME280;43816;52.054;-9.494;2022-09-25T00:18:03;102196.78;;;14.33;61.16
57616;BME280;43816;52.054;-9.494;2022-09-25T00:18:14;102194.94;;;14.34;60.85
57616;BME280;43816;52.054;-9.494;2022-09-25T00:18:25;102196.78;;;14.33;61.06
57616;BME280;43816;52.054;-9.494;2022-09-25T00:18:35;102197.78;;;14.32;60.87
57616;BME280;43816;52.054;-9.494;2022-09-25T00:18:46;102191.38;;;14.33;60.99
57616;BME280;43816;52.054;-9.494;2022-09-25T00:18:57;102195.06;;;14.32;60.90
57616;BME280;43816;52.054;-9.494;2022-09-25T00:19:11;102205.91;;;14.32;61.08
57616;BME280;43816;52.054;-9.494;2022-09-25T00:19:28;102190.63;;;14.31;61.03
57616;BME280;43816;52.054;-9.494;2022-09-25T00:19:38;102191.56;;;14.30;61.14
57616;BME280;43816;52.054;-9.494;2022-09-25T00:19:48;102198.75;;;14.31;61.02
57616;BME280;43816;52.054;-9.494;2022-09-25T00:19:59;102193.31;;;14.31;61.00
57616;BME280;43816;52.054;-9.494;2022-09-25T00:20:09;102194.28;;;14.30;61.04
57616;BME280;43816;52.054;-9.494;2022-09-25T00:20:19;102197.00;;;14.30;60.98
57616;BME280;43816;52.054;-9.494;2022-09-25T00:20:29;102205.13;;;14.30;61.13
57616;BME280;43816;52.054;-9.494;2022-09-25T00:20:40;102197.00;;;14.30;61.03
57616;BME280;43816;52.054;-9.494;2022-09-25T00:20:59;102198.75;;;14.31;60.97
57616;BME280;43816;52.054;-9.494;2022-09-25T00:21:12;102204.16;;;14.31;60.87
57616;BME280;43816;52.054;-9.494;2022-09-25T00:21:22;102205.13;;;14.30;60.92
57616;BME280;43816;52.054;-9.494;2022-09-25T00:21:34;102196.03;;;14.31;60.95
57616;BME280;43816;52.054;-9.494;2022-09-25T00:21:45;102204.16;;;14.31;60.89
57616;BME280;43816;52.054;-9.494;2022-09-25T00:21:55;102201.44;;;14.31;61.12
57616;BME280;43816;52.054;-9.494;2022-09-25T00:22:06;102197.00;;;14.30;60.98
57616;BME280;43816;52.054;-9.494;2022-09-25T00:22:21;102203.28;;;14.31;60.97
57616;BME280;43816;52.054;-9.494;2022-09-25T00:22:31;102200.59;;;14.31;61.00
57616;BME280;43816;52.054;-9.494;2022-09-25T00:22:42;102200.69;;;14.29;61.00
57616;BME280;43816;52.054;-9.494;2022-09-25T00:22:52;102192.56;;;14.29;60.92
57616;BME280;43816;52.054;-9.494;2022-09-25T00:23:02;102203.28;;;14.31;61.22
57616;BME280;43816;52.054;-9.494;2022-09-25T00:23:13;102202.41;;;14.30;61.01
57616;BME280;43816;52.054;-9.494;2022-09-25T00:23:23;102203.41;;;14.29;60.92
57616;BME280;43816;52.054;-9.494;2022-09-25T00:23:33;102200.69;;;14.29;60.97
57616;BME280;43816;52.054;-9.494;2022-09-25T00:23:44;102193.44;;;14.30;61.17
57616;BME280;43816;52.054;-9.494;2022-09-25T00:24:00;102200.69;;;14.29;61.05
57616;BME280;43816;52.054;-9.494;2022-09-25T00:24:11;102205.22;;;14.29;60.98
57616;BME280;43816;52.054;-9.494;2022-09-25T00:24:21;102198.94;;;14.28;61.34
57616;BME280;43816;52.054;-9.494;2022-09-25T00:24:33;102197.09;;;14.29;60.92
57616;BME280;43816;52.054;-9.494;2022-09-25T00:24:44;102200.69;;;14.29;60.95
57616;BME280;43816;52.054;-9.494;2022-09-25T00:24:54;102201.66;;;14.28;61.07
57616;BME280;43816;52.054;-9.494;2022-09-25T00:25:05;102209.78;;;14.28;60.93
57616;BME280;43816;52.054;-9.494;2022-09-25T00:25:16;102202.63;;;14.27;61.02
57616;BME280;43816;52.054;-9.494;2022-09-25T00:25:26;102199.06;;;14.27;61.17
57616;BME280;43816;52.054;-9.494;2022-09-25T00:25:37;102199.91;;;14.27;61.11
57616;BME280;43816;52.054;-9.494;2022-09-25T00:25:53;102197.19;;;14.27;61.00
57616;BME280;43816;52.054;-9.494;2022-09-25T00:26:04;102201.75;;;14.27;60.83
57616;BME280;43816;52.054;-9.494;2022-09-25T00:26:16;102209.03;;;14.26;60.76
57616;BME280;43816;52.054;-9.494;2022-09-25T00:26:27;102194.63;;;14.25;60.94
57616;BME280;43816;52.054;-9.494;2022-09-25T00:26:40;102200.91;;;14.26;61.20
57616;BME280;43816;52.054;-9.494;2022-09-25T00:26:51;102198.19;;;14.26;61.05
57616;BME280;43816;52.054;-9.494;2022-09-25T00:27:01;102201.75;;;14.27;60.97
57616;BME280;43816;52.054;-9.494;2022-09-25T00:27:12;102189.22;;;14.25;61.01
57616;BME280;43816;52.054;-9.494;2022-09-25T00:27:22;102198.19;;;14.26;61.05
57616;BME280;43816;52.054;-9.494;2022-09-25T00:27:32;102198.28;;;14.24;61.06
57616;BME280;43816;52.054;-9.494;2022-09-25T00:27:43;102193.75;;;14.25;60.85
57616;BME280;43816;52.054;-9.494;2022-09-25T00:27:54;102192.88;;;14.24;61.10
57616;BME280;43816;52.054;-9.494;2022-09-25T00:28:05;102199.16;;;14.25;60.97
57616;BME280;43816;52.054;-9.494;2022-09-25T00:28:15;102198.19;;;14.26;61.02
57616;BME280;43816;52.054;-9.494;2022-09-25T00:28:25;102196.44;;;14.25;60.87
57616;BME280;43816;52.054;-9.494;2022-09-25T00:28:37;102197.44;;;14.24;60.97
57616;BME280;43816;52.054;-9.494;2022-09-25T00:28:47;102200.16;;;14.24;60.97
57616;BME280;43816;52.054;-9.494;2022-09-25T00:28:58;102199.16;;;14.25;61.05
57616;BME280;43816;52.054;-9.494;2022-09-25T00:29:13;102196.44;;;14.25;61.23
57616;BME280;43816;52.054;-9.494;2022-09-25T00:29:24;102194.72;;;14.24;61.06
57616;BME280;43816;52.054;-9.494;2022-09-25T00:29:36;102193.84;;;14.23;61.07
57616;BME280;43816;52.054;-9.494;2022-09-25T00:29:46;102184.88;;;14.23;60.71
57616;BME280;43816;52.054;-9.494;2022-09-25T00:29:57;102183.13;;;14.22;61.01
57616;BME280;43816;52.054;-9.494;2022-09-25T00:30:09;102190.28;;;14.23;61.10
57616;BME280;43816;52.054;-9.494;2022-09-25T00:30:20;102193.00;;;14.23;61.11
57616;BME280;43816;52.054;-9.494;2022-09-25T00:30:31;102195.69;;;14.23;60.99
57616;BME280;43816;52.054;-9.494;2022-09-25T00:30:41;102188.53;;;14.22;61.30
57616;BME280;43816;52.054;-9.494;2022-09-25T00:30:51;102188.53;;;14.22;61.17
57616;BME280;43816;52.054;-9.494;2022-09-25T00:31:03;102188.53;;;14.22;60.72
57616;BME280;43816;52.054;-9.494;2022-09-25T00:31:18;102186.81;;;14.21;61.29
57616;BME280;43816;52.054;-9.494;2022-09-25T00:31:30;102184.13;;;14.21;61.16
57616;BME280;43816;52.054;-9.494;2022-09-25T00:31:41;102187.78;;;14.20;61.01
57616;BME280;43816;52.054;-9.494;2022-09-25T00:31:53;102181.41;;;14.21;60.96
57616;BME280;43816;52.054;-9.494;2022-09-25T00:32:05;102186.81;;;14.21;61.29
57616;BME280;43816;52.054;-9.494;2022-09-25T00:32:16;102192.25;;;14.21;61.07
57616;BME280;43816;52.054;-9.494;2022-09-25T00:32:26;102184.13;;;14.21;61.11
57616;BME280;43816;52.054;-9.494;2022-09-25T00:32:37;102185.06;;;14.20;61.13
57616;BME280;43816;52.054;-9.494;2022-09-25T00:32:47;102185.94;;;14.20;61.11
57616;BME280;43816;52.054;-9.494;2022-09-25T00:32:57;102182.25;;;14.21;60.96
57616;BME280;43816;52.054;-9.494;2022-09-25T00:33:08;102182.25;;;14.21;61.02
57616;BME280;43816;52.054;-9.494;2022-09-25T00:33:18;102189.44;;;14.22;60.75
57616;BME280;43816;52.054;-9.494;2022-09-25T00:33:29;102183.38;;;14.19;60.95
57616;BME280;43816;52.054;-9.494;2022-09-25T00:33:39;102186.94;;;14.19;60.83
57616;BME280;43816;52.054;-9.494;2022-09-25T00:33:50;102174.34;;;14.18;61.19
57616;BME280;43816;52.054;-9.494;2022-09-25T00:34:03;102178.81;;;14.19;60.95
57616;BME280;43816;52.054;-9.494;2022-09-25T00:34:14;102170.78;;;14.18;61.17
57616;BME280;43816;52.054;-9.494;2022-09-25T00:34:24;102177.94;;;14.19;61.15
57616;BME280;43816;52.054;-9.494;2022-09-25T00:34:36;102177.94;;;14.19;61.14
57616;BME280;43816;52.054;-9.494;2022-09-25T00:34:46;102183.38;;;14.19;61.25
57616;BME280;43816;52.054;-9.494;2022-09-25T00:34:56;102185.19;;;14.18;60.93
57616;BME280;43816;52.054;-9.494;2022-09-25T00:35:07;102178.91;;;14.18;61.18
57616;BME280;43816;52.054;-9.494;2022-09-25T00:35:17;102183.38;;;14.19;61.22
57616;BME280;43816;52.054;-9.494;2022-09-25T00:35:28;102183.38;;;14.19;60.90
57616;BME280;43816;52.054;-9.494;2022-09-25T00:35:38;102179.66;;;14.20;61.30
57616;BME280;43816;52.054;-9.494;2022-09-25T00:35:48;102183.38;;;14.19;60.97
57616;BME280;43816;52.054;-9.494;2022-09-25T00:36:04;102184.22;;;14.19;60.87
57616;BME280;43816;52.054;-9.494;2022-09-25T00:36:14;102178.81;;;14.19;60.82
57616;BME280;43816;52.054;-9.494;2022-09-25T00:36:25;102180.66;;;14.19;60.92
57616;BME280;43816;52.054;-9.494;2022-09-25T00:36:36;102185.06;;;14.20;61.12
57616;BME280;43816;52.054;-9.494;2022-09-25T00:36:47;102177.06;;;14.18;60.91
57616;BME280;43816;52.054;-9.494;2022-09-25T00:36:57;102171.66;;;14.18;60.79
57616;BME280;43816;52.054;-9.494;2022-09-25T00:37:07;102181.63;;;14.18;61.13
57616;BME280;43816;52.054;-9.494;2022-09-25T00:37:18;102177.06;;;14.18;61.13
57616;BME280;43816;52.054;-9.494;2022-09-25T00:37:28;102186.19;;;14.17;61.01
57616;BME280;43816;52.054;-9.494;2022-09-25T00:37:38;102173.59;;;14.16;61.00
57616;BME280;43816;52.054;-9.494;2022-09-25T00:37:48;102172.75;;;14.16;60.88
57616;BME280;43816;52.054;-9.494;2022-09-25T00:37:59;102176.31;;;14.16;60.95
57616;BME280;43816;52.054;-9.494;2022-09-25T00:38:09;102173.72;;;14.15;60.78
57616;BME280;43816;52.054;-9.494;2022-09-25T00:38:19;102177.28;;;14.15;60.81
57616;BME280;43816;52.054;-9.494;2022-09-25T00:38:30;102178.16;;;14.16;61.14
57616;BME280;43816;52.054;-9.494;2022-09-25T00:38:41;102181.81;;;14.15;60.97
57616;BME280;43816;52.054;-9.494;2022-09-25T00:38:51;102179.97;;;14.15;61.06
57616;BME280;43816;52.054;-9.494;2022-09-25T00:39:01;102174.66;;;14.14;61.00
57616;BME280;43816;52.054;-9.494;2022-09-25T00:39:12;102181.81;;;14.15;60.96
57616;BME280;43816;52.054;-9.494;2022-09-25T00:39:22;102187.25;;;14.15;61.13
57616;BME280;43816;52.054;-9.494;2022-09-25T00:39:33;102190.69;;;14.17;60.94
57616;BME280;43816;52.054;-9.494;2022-09-25T00:39:43;102178.16;;;14.16;60.97
57616;BME280;43816;52.054;-9.494;2022-09-25T00:39:54;102180.88;;;14.16;60.82
57616;BME280;43816;52.054;-9.494;2022-09-25T00:40:05;102172.84;;;14.14;61.08
57616;BME280;43816;52.054;-9.494;2022-09-25T00:40:15;102183.69;;;14.14;61.18
57616;BME280;43816;52.054;-9.494;2022-09-25T00:40:26;102179.22;;;14.13;61.14
57616;BME280;43816;52.054;-9.494;2022-09-25T00:40:36;102181.94;;;14.13;60.89
57616;BME280;43816;52.054;-9.494;2022-09-25T00:40:46;102181.94;;;14.13;61.12
57616;BME280;43816;52.054;-9.494;2022-09-25T00:40:57;102181.94;;;14.13;61.48
57616;BME280;43816;52.054;-9.494;2022-09-25T00:41:07;102182.91;;;14.12;60.77
57616;BME280;43816;52.054;-9.494;2022-09-25T00:41:20;102183.78;;;14.13;61.04
57616;BME280;43816;52.054;-9.494;2022-09-25T00:41:31;102181.06;;;14.13;61.13
57616;BME280;43816;52.054;-9.494;2022-09-25T00:41:41;102180.22;;;14.12;60.96
57616;BME280;43816;52.054;-9.494;2022-09-25T00:41:52;102188.34;;;14.12;60.95
57616;BME280;43816;52.054;-9.494;2022-09-25T00:42:02;102183.88;;;14.11;61.27
57616;BME280;43816;52.054;-9.494;2022-09-25T00:42:13;102189.19;;;14.13;61.19
57616;BME280;43816;52.054;-9.494;2022-09-25T00:42:24;102181.06;;;14.13;61.10
57616;BME280;43816;52.054;-9.494;2022-09-25T00:42:34;102187.44;;;14.12;61.12
57616;BME280;43816;52.054;-9.494;2022-09-25T00:42:44;102184.75;;;14.12;61.35
57616;BME280;43816;52.054;-9.494;2022-09-25T00:42:54;102189.28;;;14.11;61.15
57616;BME280;43816;52.054;-9.494;2022-09-25T00:43:12;102188.44;;;14.11;60.98
57616;BME280;43816;52.054;-9.494;2022-09-25T00:43:49;102191.16;;;14.11;61.28
57616;BME280;43816;52.054;-9.494;2022-09-25T00:44:02;102187.44;;;14.12;61.26
57616;BME280;43816;52.054;-9.494;2022-09-25T00:45:02;102191.03;;;14.12;61.11
57616;BME280;43816;52.054;-9.494;2022-09-25T00:45:18;102188.44;;;14.11;60.94
57616;BME280;43816;52.054;-9.494;2022-09-25T00:45:29;102192.84;;;14.12;61.13
57616;BME280;43816;52.054;-9.494;2022-09-25T00:45:40;102194.81;;;14.10;61.10
57616;BME280;43816;52.054;-9.494;2022-09-25T00:45:50;102189.41;;;14.10;61.36
57616;BME280;43816;52.054;-9.494;2022-09-25T00:46:02;102189.41;;;14.10;61.24
57616;BME280;43816;52.054;-9.494;2022-09-25T00:46:39;102195.78;;;14.09;61.16
57616;BME280;43816;52.054;-9.494;2022-09-25T00:46:50;102189.41;;;14.10;61.19
57616;BME280;43816;52.054;-9.494;2022-09-25T00:47:01;102189.41;;;14.10;61.27
57616;BME280;43816;52.054;-9.494;2022-09-25T00:47:14;102189.41;;;14.10;61.20
57616;BME280;43816;52.054;-9.494;2022-09-25T00:48:10;102186.78;;;14.08;60.95
57616;BME280;43816;52.054;-9.494;2022-09-25T00:48:21;102188.53;;;14.09;61.11
57616;BME280;43816;52.054;-9.494;2022-09-25T00:48:31;102189.50;;;14.08;61.25
57616;BME280;43816;52.054;-9.494;2022-09-25T00:48:55;102187.66;;;14.09;61.38
57616;BME280;43816;52.054;-9.494;2022-09-25T00:49:16;102181.38;;;14.08;61.26
57616;BME280;43816;52.054;-9.494;2022-09-25T00:49:27;102184.19;;;14.06;61.46
57616;BME280;43816;52.054;-9.494;2022-09-25T00:49:38;102185.94;;;14.07;60.91
57616;BME280;43816;52.054;-9.494;2022-09-25T00:49:49;102182.34;;;14.07;61.21
57616;BME280;43816;52.054;-9.494;2022-09-25T00:50:11;102180.53;;;14.07;61.17
57616;BME280;43816;52.054;-9.494;2022-09-25T00:50:50;102183.34;;;14.06;61.13
57616;BME280;43816;52.054;-9.494;2022-09-25T00:51:04;102184.19;;;14.06;61.34
57616;BME280;43816;52.054;-9.494;2022-09-25T00:51:17;102178.03;;;14.04;61.04
57616;BME280;43816;52.054;-9.494;2022-09-25T00:51:58;102180.75;;;14.04;61.44
57616;BME280;43816;52.054;-9.494;2022-09-25T00:52:09;102181.59;;;14.05;61.29
57616;BME280;43816;52.054;-9.494;2022-09-25T00:52:22;102169.91;;;14.04;61.20
57616;BME280;43816;52.054;-9.494;2022-09-25T00:52:32;102179.00;;;14.03;61.23
57616;BME280;43816;52.054;-9.494;2022-09-25T00:52:43;102176.28;;;14.03;61.25
57616;BME280;43816;52.054;-9.494;2022-09-25T00:53:18;102181.69;;;14.03;61.26
57616;BME280;43816;52.054;-9.494;2022-09-25T00:53:30;102181.78;;;14.02;61.29
57616;BME280;43816;52.054;-9.494;2022-09-25T00:53:41;102178.25;;;14.01;61.51
57616;BME280;43816;52.054;-9.494;2022-09-25T00:53:51;102176.38;;;14.02;61.40
57616;BME280;43816;52.054;-9.494;2022-09-25T00:54:03;102169.25;;;14.01;61.67
57616;BME280;43816;52.054;-9.494;2022-09-25T00:54:17;102176.38;;;14.02;61.14
57616;BME280;43816;52.054;-9.494;2022-09-25T00:54:33;102175.53;;;14.01;61.22
57616;BME280;43816;52.054;-9.494;2022-09-25T00:54:58;102175.53;;;14.01;61.14
57616;BME280;43816;52.054;-9.494;2022-09-25T00:55:12;102176.38;;;14.02;61.28
57616;BME280;43816;52.054;-9.494;2022-09-25T00:55:23;102167.41;;;14.01;61.37
57616;BME280;43816;52.054;-9.494;2022-09-25T00:55:37;102180.94;;;14.01;61.11
57616;BME280;43816;52.054;-9.494;2022-09-25T00:55:49;102174.66;;;14.01;61.29
57616;BME280;43816;52.054;-9.494;2022-09-25T00:56:01;102175.53;;;14.01;60.77
57616;BME280;43816;52.054;-9.494;2022-09-25T00:56:13;102180.94;;;14.01;61.14
57616;BME280;43816;52.054;-9.494;2022-09-25T00:56:23;102177.28;;;14.02;61.48
57616;BME280;43816;52.054;-9.494;2022-09-25T00:56:39;102178.13;;;14.03;61.28
57616;BME280;43816;52.054;-9.494;2022-09-25T00:56:52;102181.69;;;14.03;61.14
57616;BME280;43816;52.054;-9.494;2022-09-25T00:57:07;102180.84;;;14.03;61.33
57616;BME280;43816;52.054;-9.494;2022-09-25T00:57:21;102188.09;;;14.02;61.24
57616;BME280;43816;52.054;-9.494;2022-09-25T00:57:36;102182.69;;;14.02;61.38
57616;BME280;43816;52.054;-9.494;2022-09-25T00:57:52;102181.78;;;14.02;61.10
57616;BME280;43816;52.054;-9.494;2022-09-25T00:58:04;102172.81;;;14.01;61.19
57616;BME280;43816;52.054;-9.494;2022-09-25T00:58:18;102180.94;;;14.01;61.16
57616;BME280;43816;52.054;-9.494;2022-09-25T00:58:32;102178.25;;;14.01;61.16
57616;BME280;43816;52.054;-9.494;2022-09-25T00:58:46;102186.34;;;14.01;61.15
57616;BME280;43816;52.054;-9.494;2022-09-25T00:58:57;102178.34;;;14.00;61.11
57616;BME280;43816;52.054;-9.494;2022-09-25T00:59:11;102185.59;;;13.99;61.16
57616;BME280;43816;52.054;-9.494;2022-09-25T00:59:26;102180.19;;;13.99;61.84
57616;BME280;43816;52.054;-9.494;2022-09-25T00:59:43;102179.19;;;14.00;61.24
57616;BME280;43816;52.054;-9.494;2022-09-25T01:00:00;102178.34;;;14.00;61.19
57616;BME280;43816;52.054;-9.494;2022-09-25T01:00:15;102180.19;;;13.99;61.37
57616;BME280;43816;52.054;-9.494;2022-09-25T01:00:25;102183.75;;;14.00;61.13
57616;BME280;43816;52.054;-9.494;2022-09-25T01:00:36;102181.91;;;14.00;61.34
57616;BME280;43816;52.054;-9.494;2022-09-25T01:00:46;102181.91;;;14.00;61.16
57616;BME280;43816;52.054;-9.494;2022-09-25T01:00:57;102177.47;;;13.99;61.02
57616;BME280;43816;52.054;-9.494;2022-09-25T01:01:08;102182.91;;;13.99;61.21
57616;BME280;43816;52.054;-9.494;2022-09-25T01:01:19;102182.00;;;13.99;61.09
57616;BME280;43816;52.054;-9.494;2022-09-25T01:01:29;102184.72;;;13.99;61.17
57616;BME280;43816;52.054;-9.494;2022-09-25T01:01:39;102185.59;;;13.99;61.30
57616;BME280;43816;52.054;-9.494;2022-09-25T01:01:50;102187.41;;;13.99;61.20
57616;BME280;43816;52.054;-9.494;2022-09-25T01:02:00;102180.28;;;13.98;61.11
57616;BME280;43816;52.054;-9.494;2022-09-25T01:02:16;102179.28;;;13.99;61.00
57616;BME280;43816;52.054;-9.494;2022-09-25T01:02:31;102184.84;;;13.97;61.31
57616;BME280;43816;52.054;-9.494;2022-09-25T01:02:46;102180.28;;;13.98;61.32
57616;BME280;43816;52.054;-9.494;2022-09-25T01:02:57;102183.00;;;13.98;61.14
57616;BME280;43816;52.054;-9.494;2022-09-25T01:03:08;102178.44;;;13.98;61.26
57616;BME280;43816;52.054;-9.494;2022-09-25T01:03:19;102179.44;;;13.97;61.21